METAR Data
IDs: Format: Raw Decoded Include TAF

Data at: 2027 UTC 25 Sep 2020

KMTW 251956Z AUTO 17018G21KT 10SM CLR 22/15 A2987 RMK AO2 SLP112 T02170150
KMTW 251856Z AUTO 17017KT 10SM CLR 22/14 A2987 RMK AO2 SLP113 T02220144
KMTW 251756Z AUTO 16015KT 10SM CLR 23/14 A2990 RMK AO2 SLP124 T02280144 10244 20133 58016
KMTW 251656Z AUTO 17013G18KT 10SM CLR 24/14 A2992 RMK AO2 SLP127 T02440144
KMTW 251556Z AUTO 23013KT 10SM CLR 23/14 A2994 RMK AO2 SLP137 T02330139
KMTW 251456Z AUTO 22012G17KT 10SM CLR 22/14 A2995 RMK AO2 SLP140 T02170139 50004
KMTW 251356Z AUTO 18004KT 10SM CLR 19/15 A2995 RMK AO2 SLP142 T01940150
KMTW 251256Z AUTO 16004KT 10SM CLR 16/14 A2994 RMK AO2 SLP138 T01610144
KMTW 251156Z AUTO 13003KT 9SM CLR 13/13 A2994 RMK AO2 SLP139 60001 70002 T01330133 10178 20133 51010
KMTW 251056Z AUTO 21007KT 10SM CLR 18/14 A2993 RMK AO2 SLP133 T01780139
KMTW 250956Z AUTO 21004KT 10SM CLR 17/14 A2992 RMK AO2 SLP131 T01670139
KMTW 250906Z AUTO 00000KT 3SM BR FEW065 16/16 A2991 RMK AO2
KMTW 250902Z AUTO 00000KT 1 1/2SM BR FEW065 15/15 A2991 RMK AO2 VIS 1/2V5
KMTW 250856Z AUTO 00000KT 3/4SM BR FEW065 15/15 A2991 RMK AO2 VIS 1/4V2 1/2 SLP126 P0001 60001 T01500150 52001
KMTW 250850Z AUTO 00000KT 3/4SM BR FEW065 15/15 A2990 RMK AO2 P0001
KMTW 250846Z AUTO 00000KT 1 3/4SM BR FEW065 15/15 A2990 RMK AO2 VIS 1/2V5 P0001
KMTW 250810Z AUTO 13003KT 3SM BR BKN048 OVC055 15/15 A2990 RMK AO2
KMTW 250756Z AUTO 00000KT 1 3/4SM BR BKN048 15/15 A2990 RMK AO2 SLP125 T01500150
KMTW 250750Z AUTO 00000KT 1 3/4SM BR BKN048 15/15 A2990 RMK AO2
KMTW 250656Z AUTO 17003KT 6SM BR BKN055 OVC070 16/16 A2990 RMK AO2 SLP125 T01610161
KMTW 250637Z AUTO 17003KT 4SM BR BKN065 BKN110 16/16 A2990 RMK AO2
KMTW 250616Z AUTO 00000KT 2SM BR FEW060 BKN070 OVC085 16/16 A2990 RMK AO2
KMTW 250556Z AUTO 11003KT 1 3/4SM BR BKN065 OVC085 16/16 A2990 RMK AO2 SLP124 60001 T01560156 10183 20156 58002
KMTW 250526Z AUTO 34003KT 1 3/4SM BR OVC070 16/16 A2990 RMK AO2
KMTW 250513Z AUTO 00000KT 2SM BR OVC070 16/16 A2990 RMK AO2
KMTW 250456Z AUTO 00000KT 1 3/4SM BR OVC070 16/16 A2990 RMK AO2 SLP125 T01560156 402170139
KMTW 250356Z AUTO 00000KT 1 1/2SM BR BKN085 OVC120 16/16 A2991 RMK AO2 SLP126 T01560156
KMTW 250256Z AUTO 10004KT 1 3/4SM BR OVC060 16/16 A2991 RMK AO2 SLP127 60001 T01610161 51004
KMTW 250242Z AUTO 08003KT 1 3/4SM BR BKN060 OVC080 17/17 A2991 RMK AO2
KMTW 250225Z AUTO 00000KT 2SM BR BKN048 BKN065 OVC080 17/17 A2991 RMK AO2
KMTW 250156Z AUTO 00000KT 2 1/2SM BR SCT055 BKN085 OVC100 17/17 A2991 RMK AO2 RAE30 SLP128 P0001 T01720167
KMTW 250056Z AUTO 15003KT 9SM -RA SCT075 BKN100 18/17 A2990 RMK AO2 RAB48 SLP125 P0000 T01780167
KMTW 242356Z AUTO 17008KT 10SM SCT060 18/17 A2990 RMK AO2 SLP124 T01830167 10217 20183 52005
KMTW 242256Z AUTO 18011KT 10SM FEW050 BKN075 19/17 A2989 RMK AO2 SLP123 T01890167
KMTW 242156Z AUTO 16012KT 10SM BKN085 19/16 A2988 RMK AO2 SLP117 T01940161
KMTW 242056Z AUTO 17008KT 10SM FEW048 SCT070 21/17 A2988 RMK AO2 SLP117 T02060167 58009
KMTW 241956Z AUTO 14007KT 10SM CLR 21/16 A2989 RMK AO2 SLP119 T02110161
KMTW 241856Z AUTO 13008KT 10SM CLR 21/16 A2990 RMK AO2 SLP124 T02060156
KMTW 241756Z AUTO 14005KT 10SM CLR 21/16 A2991 RMK AO2 SLP126 T02060156 10206 20139 56010
KMTW 241656Z AUTO 13005KT 10SM CLR 19/16 A2991 RMK AO2 SLP127 T01940156
KMTW 241556Z AUTO 00000KT 10SM CLR 19/16 A2993 RMK AO2 SLP132 T01940156
KMTW 241456Z AUTO 00000KT 10SM SCT050 BKN065 18/16 A2994 RMK AO2 SLP135 T01830156 53005
KMTW 241356Z AUTO 10SM CLR 17/15 A2993 RMK AO2 SLP133 T01670150 $
KMTW 241256Z AUTO 02005KT 10SM FEW055 16/14 A2993 RMK AO2 SLP134 T01560144
KMTW 241156Z AUTO 00000KT 9SM OVC050 14/13 A2992 RMK AO2 SLP132 T01390133 10167 20139 53004
KMTW 241056Z AUTO 02004KT 10SM CLR 14/13 A2992 RMK AO2 SLP129 T01440133
KMTW 240956Z AUTO 00000KT 10SM CLR 16/14 A2991 RMK AO2 SLP126 T01560139
KMTW 240856Z AUTO 24003KT 10SM CLR 16/14 A2991 RMK AO2 SLP126 T01610139 56002